createdAt,value
2019-04-25T00:00:02.110Z,14.30
2019-04-25T00:02:38.248Z,10.27
2019-04-25T00:05:11.407Z,13.43
2019-04-25T00:07:42.482Z,12.67
2019-04-25T00:10:13.760Z,9.93
2019-04-25T00:12:44.495Z,15.00
2019-04-25T00:15:14.076Z,8.80
2019-04-25T00:17:44.549Z,14.20
2019-04-25T00:20:14.622Z,8.17
2019-04-25T00:22:53.373Z,11.13
2019-04-25T00:25:42.274Z,8.07
2019-04-25T00:28:11.717Z,9.00
2019-04-25T00:30:43.437Z,8.93
2019-04-25T00:33:12.078Z,8.27
2019-04-25T00:35:43.492Z,8.73
2019-04-25T00:38:12.424Z,7.57
2019-04-25T00:40:42.753Z,9.47
2019-04-25T00:43:12.916Z,9.57
2019-04-25T00:45:43.566Z,9.63
2019-04-25T00:48:13.294Z,9.40
2019-04-25T00:50:43.411Z,8.80
2019-04-25T00:53:13.657Z,7.17
2019-04-25T00:55:43.161Z,6.10
2019-04-25T00:58:19.467Z,9.70
2019-04-25T01:01:02.957Z,7.67
2019-04-25T01:03:32.884Z,6.63
2019-04-25T01:06:03.714Z,8.57
2019-04-25T01:08:33.429Z,7.63
2019-04-25T01:11:02.714Z,6.07
2019-04-25T01:13:32.214Z,7.97
2019-04-25T01:16:02.168Z,13.07
2019-04-25T01:18:33.725Z,6.30
2019-04-25T01:21:04.432Z,8.83
2019-04-25T01:23:33.961Z,4.63
2019-04-25T01:26:03.408Z,6.83
2019-04-25T01:28:33.567Z,5.07
2019-04-25T01:31:05.204Z,3.37
2019-04-25T01:33:34.584Z,8.20
2019-04-25T01:36:10.484Z,5.13
2019-04-25T01:38:58.922Z,3.33
2019-04-25T01:41:50.074Z,3.23
2019-04-25T01:44:25.843Z,3.07
2019-04-25T01:46:56.443Z,8.53
2019-04-25T01:49:25.931Z,4.57
2019-04-25T01:51:57.458Z,4.47
2019-04-25T01:54:26.675Z,5.47
2019-04-25T01:56:56.286Z,6.13
2019-04-25T01:59:25.807Z,4.80
2019-04-25T02:01:55.605Z,5.70
2019-04-25T02:04:24.985Z,5.50
2019-04-25T02:06:55.465Z,4.93
2019-04-25T02:09:25.014Z,5.50
2019-04-25T02:12:04.789Z,5.20
2019-04-25T02:14:33.846Z,5.77
2019-04-25T02:17:04.543Z,6.00
2019-04-25T02:19:35.794Z,6.23
2019-04-25T02:22:05.276Z,6.03
2019-04-25T02:24:34.656Z,5.33
2019-04-25T02:27:04.732Z,6.00
2019-04-25T02:29:34.162Z,6.03
2019-04-25T02:32:08.795Z,5.50
2019-04-25T02:34:34.941Z,5.80
2019-04-25T02:37:09.086Z,6.37
2019-04-25T02:39:37.454Z,6.33
2019-04-25T02:42:08.411Z,6.33
2019-04-25T02:44:40.759Z,6.70
2019-04-25T02:47:24.851Z,6.00
2019-04-25T02:50:08.487Z,5.93
2019-04-25T02:52:39.580Z,5.43
2019-04-25T03:05:35.775Z,5.80
2019-04-25T03:08:08.286Z,5.00
2019-04-25T03:10:36.083Z,5.80
2019-04-25T03:13:11.240Z,5.20
2019-04-25T03:15:36.723Z,5.60
2019-04-25T03:18:11.908Z,5.03
2019-04-25T03:20:59.182Z,5.67
2019-04-25T03:23:42.245Z,4.83
2019-04-25T03:26:09.706Z,5.13
2019-04-25T03:28:39.075Z,5.60
2019-04-25T03:31:15.183Z,5.47
2019-04-25T03:33:39.446Z,5.30
2019-04-25T03:36:09.334Z,5.50
2019-04-25T03:38:38.818Z,6.77
2019-04-25T03:41:08.674Z,6.17
2019-04-25T03:43:38.067Z,6.10
2019-04-25T03:46:09.095Z,6.67
2019-04-25T03:48:38.509Z,6.33
2019-04-25T03:51:08.038Z,8.13
2019-04-25T03:53:38.498Z,6.27
2019-04-25T03:56:08.666Z,7.37
2019-04-25T03:58:38.125Z,6.00
2019-04-25T04:01:08.641Z,6.47
2019-04-25T04:03:38.684Z,6.40
2019-04-25T04:06:08.679Z,6.60
2019-04-25T04:08:39.399Z,6.40
2019-04-25T04:11:08.741Z,6.33
2019-04-25T04:13:38.032Z,6.87
2019-04-25T04:16:08.412Z,8.93
2019-04-25T04:18:44.068Z,6.57
2019-04-25T04:21:33.247Z,6.80
2019-04-25T04:24:27.579Z,6.97
2019-04-25T04:27:28.018Z,6.57
2019-04-25T04:29:57.423Z,7.43
2019-04-25T04:32:26.782Z,7.90
2019-04-25T04:34:56.227Z,8.53
2019-04-25T04:37:25.565Z,7.30
2019-04-25T04:39:54.968Z,7.27
2019-04-25T04:42:24.310Z,9.63
2019-04-25T04:44:53.762Z,9.57
2019-04-25T04:47:24.317Z,8.47
2019-04-25T04:49:54.112Z,7.93
2019-04-25T04:52:25.481Z,8.03
2019-04-25T04:55:05.345Z,8.93
2019-04-25T04:57:32.926Z,7.87
2019-04-25T04:59:57.644Z,7.90
2019-04-25T05:02:53.299Z,9.43
2019-04-25T05:05:44.640Z,7.47
2019-04-25T05:08:18.804Z,7.43
2019-04-25T05:10:48.298Z,7.67
2019-04-25T05:13:17.976Z,7.37
2019-04-25T05:15:47.370Z,7.47
2019-04-25T05:18:32.949Z,7.27
2019-04-25T05:20:47.708Z,6.50
2019-04-25T05:23:17.167Z,6.60
2019-04-25T05:25:46.527Z,6.30
2019-04-25T05:28:17.928Z,6.20
2019-04-25T05:30:59.002Z,7.37
2019-04-25T05:33:28.443Z,6.13
2019-04-25T05:35:57.817Z,6.57
2019-04-25T05:38:27.223Z,6.30
2019-04-25T05:41:04.027Z,6.03
2019-04-25T05:43:33.675Z,5.00
2019-04-25T05:46:04.459Z,5.47
2019-04-25T05:48:34.102Z,5.10
2019-04-25T05:51:03.907Z,5.70
2019-04-25T05:53:33.465Z,5.53
2019-04-25T05:56:04.181Z,6.10
2019-04-25T05:58:33.824Z,4.83
2019-04-25T06:01:03.406Z,5.30
2019-04-25T06:03:33.945Z,4.57
2019-04-25T06:06:03.605Z,4.67
2019-04-25T06:08:35.193Z,4.53
2019-04-25T06:11:24.790Z,6.57
2019-04-25T06:14:01.104Z,4.13
2019-04-25T06:16:34.753Z,4.37
2019-04-25T06:19:25.196Z,5.10
2019-04-25T06:21:55.011Z,4.37
2019-04-25T06:24:34.329Z,4.63
2019-04-25T06:27:25.484Z,5.50
2019-04-25T06:30:04.825Z,4.90
2019-04-25T06:32:35.443Z,4.40
2019-04-25T06:35:05.738Z,3.40
2019-04-25T06:37:35.179Z,3.77
2019-04-25T06:40:06.529Z,3.43
2019-04-25T06:42:36.290Z,3.27
2019-04-25T06:45:25.298Z,7.97
2019-04-25T06:48:10.643Z,5.10
2019-04-25T06:50:40.129Z,3.73
2019-04-25T06:53:09.539Z,2.87
2019-04-25T06:55:38.872Z,2.47
2019-04-25T06:58:12.090Z,3.33
2019-04-25T07:00:41.335Z,3.20
2019-04-25T07:03:10.508Z,2.27
2019-04-25T07:05:40.671Z,2.93
2019-04-25T07:08:10.325Z,1.93
2019-04-25T07:10:39.588Z,3.43
2019-04-25T07:13:08.966Z,2.57
2019-04-25T07:15:38.469Z,3.03
2019-04-25T07:18:07.808Z,2.10
2019-04-25T07:20:37.176Z,4.50
2019-04-25T07:23:06.639Z,2.00
2019-04-25T07:25:40.402Z,1.80
2019-04-25T07:28:31.142Z,4.27
2019-04-25T07:31:25.421Z,1.10
2019-04-25T07:34:03.203Z,1.60
2019-04-25T07:36:33.405Z,1.60
2019-04-25T07:39:10.365Z,3.07
2019-04-25T07:41:38.337Z,1.73
2019-04-25T07:44:08.019Z,1.97
2019-04-25T07:46:40.012Z,1.93
2019-04-25T07:49:08.410Z,0.80
2019-04-25T07:51:37.836Z,2.03
2019-04-25T07:54:07.600Z,0.93
2019-04-25T07:56:37.871Z,1.50
2019-04-25T07:59:07.630Z,2.23
2019-04-25T08:01:37.938Z,1.93
2019-04-25T08:04:08.158Z,2.53
2019-04-25T08:06:37.669Z,1.57
2019-04-25T08:09:09.792Z,2.77
2019-04-25T08:11:39.277Z,1.73
2019-04-25T08:14:14.403Z,1.77
2019-04-25T08:16:46.617Z,1.30
2019-04-25T08:19:16.125Z,3.03
2019-04-25T08:21:45.791Z,2.43
2019-04-25T08:24:15.812Z,2.07
2019-04-25T08:26:45.113Z,2.50
2019-04-25T08:29:14.538Z,1.10
2019-04-25T08:31:45.274Z,4.53
2019-04-25T08:34:15.258Z,2.10
2019-04-25T08:36:46.139Z,2.87
2019-04-25T08:39:15.768Z,1.83
2019-04-25T08:42:14.812Z,1.70
2019-04-25T08:44:46.578Z,2.23
2019-04-25T08:47:15.837Z,2.43
2019-04-25T08:49:53.892Z,2.70
2019-04-25T08:52:24.360Z,3.43
2019-04-25T08:55:04.482Z,4.00
2019-04-25T08:58:26.210Z,3.50
2019-04-25T09:01:13.678Z,2.70
2019-04-25T09:03:57.408Z,2.20
2019-04-25T09:06:27.196Z,2.67
2019-04-25T09:08:56.767Z,3.50
2019-04-25T09:11:27.391Z,1.87
2019-04-25T09:14:08.061Z,3.30
2019-04-25T09:17:03.241Z,3.98
2019-04-25T09:19:33.363Z,1.55
2019-04-25T09:22:06.386Z,1.95
2019-04-25T09:24:36.853Z,5.23
2019-04-25T09:27:06.890Z,4.47
2019-04-25T09:29:36.753Z,3.45
2019-04-25T09:32:09.445Z,4.62
2019-04-25T09:34:38.819Z,4.83
2019-04-25T09:37:08.563Z,4.85
2019-04-25T09:40:00.868Z,6.55
2019-04-25T09:42:30.229Z,3.47
2019-04-25T09:45:08.946Z,5.47
2019-04-25T09:47:39.266Z,4.37
2019-04-25T09:50:43.865Z,3.85
2019-04-25T09:53:21.815Z,5.62
2019-04-25T09:55:55.649Z,5.28
2019-04-25T09:58:45.925Z,5.05
2019-04-25T10:01:15.559Z,5.65
2019-04-25T10:03:45.724Z,5.87
2019-04-25T10:06:17.661Z,3.47
2019-04-25T10:08:47.500Z,6.37
2019-04-25T10:11:17.310Z,6.37
2019-04-25T10:13:56.096Z,9.68
2019-04-25T10:16:25.670Z,3.90
2019-04-25T10:18:55.030Z,3.65
2019-04-25T10:21:24.511Z,6.00
2019-04-25T10:23:53.915Z,5.30
2019-04-25T10:26:23.594Z,2.67
2019-04-25T10:28:52.913Z,3.08
2019-04-25T10:31:23.643Z,2.47
2019-04-25T10:33:53.557Z,4.22
2019-04-25T10:36:24.596Z,4.17
2019-04-25T10:39:05.140Z,3.42
2019-04-25T10:41:25.061Z,1.95
2019-04-25T10:43:56.037Z,3.27
2019-04-25T10:46:25.510Z,4.25
2019-04-25T10:48:56.226Z,2.62
2019-04-25T10:51:25.733Z,3.80
2019-04-25T10:53:55.153Z,3.00
2019-04-25T10:56:24.547Z,1.90
2019-04-25T10:58:54.945Z,1.10
2019-04-25T11:01:24.657Z,3.10
2019-04-25T11:04:00.111Z,4.17
2019-04-25T11:06:29.716Z,4.22
2019-04-25T11:08:59.045Z,3.30
2019-04-25T11:11:28.366Z,4.20
2019-04-25T11:13:59.116Z,3.40
2019-04-25T11:16:28.720Z,2.20
2019-04-25T11:18:58.085Z,4.05
2019-04-25T11:21:27.410Z,2.80
2019-04-25T11:23:56.799Z,3.95
2019-04-25T11:26:27.859Z,2.85
2019-04-25T11:28:57.283Z,3.27
2019-04-25T11:31:47.359Z,2.95
2019-04-25T11:34:17.515Z,3.02
2019-04-25T11:36:47.317Z,2.42
2019-04-25T11:39:36.050Z,3.25
2019-04-25T11:42:14.749Z,2.40
2019-04-25T11:44:45.474Z,3.70
2019-04-25T11:47:15.563Z,1.87
2019-04-25T11:49:46.547Z,1.80
2019-04-25T11:52:26.990Z,3.00
2019-04-25T11:54:48.815Z,3.80
2019-04-25T11:57:18.106Z,2.67
2019-04-25T11:59:49.199Z,4.85
2019-04-25T12:02:18.536Z,3.67
2019-04-25T12:04:48.949Z,3.25
2019-04-25T12:07:18.433Z,2.98
2019-04-25T12:09:48.138Z,4.70
2019-04-25T12:12:17.578Z,2.67
2019-04-25T12:14:47.615Z,4.30
2019-04-25T12:17:16.901Z,1.95
2019-04-25T12:19:47.077Z,4.00
2019-04-25T12:22:16.608Z,3.85
2019-04-25T12:24:46.711Z,4.90
2019-04-25T12:27:16.175Z,1.50
2019-04-25T12:29:46.038Z,1.95
2019-04-25T12:32:15.578Z,2.92
2019-04-25T12:34:45.776Z,1.60
2019-04-25T12:37:15.166Z,8.80
2019-04-25T12:39:44.454Z,1.70
2019-04-25T12:42:14.476Z,2.87
2019-04-25T12:45:11.786Z,2.20
2019-04-25T12:47:43.778Z,2.12
2019-04-25T12:50:14.366Z,1.67
2019-04-25T12:52:43.924Z,2.17
2019-04-25T12:55:14.307Z,3.92
2019-04-25T12:57:44.806Z,2.87
2019-04-25T13:00:17.165Z,1.45
2019-04-25T13:02:46.493Z,1.77
2019-04-25T13:05:15.886Z,2.03
2019-04-25T13:07:45.179Z,5.33
2019-04-25T13:10:15.358Z,1.57
2019-04-25T13:12:44.712Z,1.73
2019-04-25T13:15:14.597Z,3.73
2019-04-25T13:17:44.015Z,1.70
2019-04-25T13:20:13.606Z,2.10
2019-04-25T13:22:43.304Z,2.30
2019-04-25T13:25:14.722Z,1.77
2019-04-25T13:27:50.756Z,2.97
2019-04-25T13:31:04.118Z,5.80
2019-04-25T13:33:46.978Z,1.37
2019-04-25T13:36:17.286Z,3.63
2019-04-25T13:38:46.619Z,2.63
2019-04-25T13:41:16.016Z,2.60
2019-04-25T13:43:45.312Z,3.40
2019-04-25T13:46:18.843Z,2.43
2019-04-25T13:48:45.882Z,1.90
2019-04-25T13:51:15.216Z,3.40
2019-04-25T13:53:44.576Z,2.07
2019-04-25T13:56:14.268Z,2.87
2019-04-25T13:58:44.364Z,2.00
2019-04-25T14:01:17.489Z,3.07
2019-04-25T14:03:47.046Z,2.95
2019-04-25T14:06:16.418Z,2.00
2019-04-25T14:08:45.747Z,4.25
2019-04-25T14:11:15.117Z,2.00
2019-04-25T14:13:44.462Z,1.55
2019-04-25T14:16:34.896Z,2.03
2019-04-25T14:19:24.289Z,3.90
2019-04-25T14:21:54.870Z,3.70
2019-04-25T14:24:28.108Z,3.57
2019-04-25T14:26:55.196Z,2.53
2019-04-25T14:29:24.613Z,2.00
2019-04-25T14:31:54.185Z,2.00
2019-04-25T14:34:25.325Z,3.57
2019-04-25T14:36:55.422Z,1.27
2019-04-25T14:39:24.935Z,1.97
2019-04-25T14:41:54.297Z,3.43
2019-04-25T14:44:23.637Z,2.17
2019-04-25T14:46:52.979Z,1.10
2019-04-25T14:49:22.713Z,1.43
2019-04-25T14:51:52.067Z,1.77
2019-04-25T14:54:28.450Z,4.53
2019-04-25T14:57:07.751Z,3.77
2019-04-25T14:59:37.092Z,1.63
2019-04-25T15:02:06.571Z,2.17
2019-04-25T15:04:35.844Z,3.73
2019-04-25T15:07:05.182Z,3.97
2019-04-25T15:09:35.380Z,2.03
2019-04-25T15:12:04.723Z,2.20
2019-04-25T15:14:34.104Z,2.50
2019-04-25T15:17:04.493Z,3.03
2019-04-25T15:19:34.018Z,5.70
2019-04-25T15:22:03.522Z,1.33
2019-04-25T15:24:34.853Z,1.43
2019-04-25T15:27:04.430Z,2.70
2019-04-25T15:29:33.782Z,3.77
2019-04-25T15:32:03.470Z,3.30
2019-04-25T15:34:40.034Z,3.50
2019-04-25T15:37:15.699Z,2.73
2019-04-25T15:40:03.984Z,2.90
2019-04-25T15:42:49.952Z,1.93
2019-04-25T15:45:32.509Z,7.43
2019-04-25T15:48:02.096Z,3.63
2019-04-25T15:50:31.928Z,2.67
2019-04-25T15:53:01.285Z,4.27
2019-04-25T15:55:31.250Z,2.83
2019-04-25T15:58:00.737Z,3.03
2019-04-25T16:00:34.914Z,2.37
2019-04-25T16:03:04.994Z,1.37
2019-04-25T16:05:35.577Z,4.73
2019-04-25T16:08:05.585Z,3.43
2019-04-25T16:10:36.711Z,5.07
2019-04-25T16:13:06.315Z,2.27
2019-04-25T16:15:36.137Z,4.47
2019-04-25T16:18:06.463Z,2.90
2019-04-25T16:20:35.889Z,2.20
2019-04-25T16:23:05.467Z,1.17
2019-04-25T16:25:35.487Z,1.17
2019-04-25T16:28:04.921Z,2.90
2019-04-25T16:30:34.562Z,2.13
2019-04-25T16:33:05.160Z,2.67
2019-04-25T16:35:35.447Z,3.77
2019-04-25T16:38:05.887Z,3.80
2019-04-25T16:40:36.256Z,3.00
2019-04-25T16:43:08.017Z,3.67
2019-04-25T16:45:39.213Z,1.23
2019-04-25T16:48:08.725Z,3.07
2019-04-25T16:50:38.088Z,2.70
2019-04-25T16:53:07.408Z,2.50
2019-04-25T16:55:36.730Z,1.23
2019-04-25T16:58:06.227Z,1.80
2019-04-25T17:00:56.959Z,3.63
2019-04-25T17:03:31.116Z,3.72
2019-04-25T17:06:00.450Z,2.23
2019-04-25T17:08:30.964Z,2.80
2019-04-25T17:11:00.243Z,3.20
2019-04-25T17:13:32.115Z,2.50
2019-04-25T17:16:32.596Z,1.33
2019-04-25T17:19:11.392Z,1.53
2019-04-25T17:21:40.938Z,1.43
2019-04-25T17:24:10.278Z,3.53
2019-04-25T17:26:39.666Z,1.17
2019-04-25T17:29:13.277Z,2.30
2019-04-25T17:31:58.702Z,2.93
2019-04-25T17:34:39.268Z,2.33
2019-04-25T17:37:34.295Z,1.70
2019-04-25T17:40:23.179Z,4.27
2019-04-25T17:42:52.500Z,1.83
2019-04-25T17:45:26.030Z,3.27
2019-04-25T17:47:55.357Z,0.73
2019-04-25T17:50:24.771Z,5.10
2019-04-25T17:52:54.152Z,3.27
2019-04-25T17:55:24.081Z,3.97
2019-04-25T17:57:53.316Z,3.77
2019-04-25T18:00:30.867Z,3.40
2019-04-25T18:03:00.149Z,1.53
2019-04-25T18:05:29.556Z,3.20
2019-04-25T18:07:58.975Z,2.77
2019-04-25T18:10:28.354Z,5.23
2019-04-25T18:12:59.634Z,1.36
2019-04-25T18:15:37.929Z,2.27
2019-04-25T18:18:11.579Z,3.33
2019-04-25T18:20:43.084Z,1.00
2019-04-25T18:23:28.987Z,3.30
2019-04-25T18:26:12.278Z,1.53
2019-04-25T18:28:45.956Z,3.27
2019-04-25T18:31:15.412Z,2.37
2019-04-25T18:33:45.888Z,3.80
2019-04-25T18:36:27.441Z,2.77
2019-04-25T18:39:13.741Z,4.47
2019-04-25T18:41:54.634Z,1.97
2019-04-25T18:44:24.026Z,1.83
2019-04-25T18:46:53.820Z,2.27
2019-04-25T18:49:23.227Z,3.43
2019-04-25T18:51:57.959Z,3.60
2019-04-25T18:54:43.131Z,1.73
2019-04-25T18:57:31.278Z,2.63
2019-04-25T19:00:24.665Z,2.93
2019-04-25T19:03:22.683Z,2.43
2019-04-25T19:06:10.973Z,2.20
2019-04-25T19:08:40.873Z,2.17
2019-04-25T19:11:10.303Z,7.57
2019-04-25T19:13:39.670Z,4.10
2019-04-25T19:16:09.062Z,4.63
2019-04-25T19:18:38.831Z,2.50
2019-04-25T19:21:09.488Z,3.57
2019-04-25T19:23:39.388Z,4.07
2019-04-25T19:26:09.705Z,2.13
2019-04-25T19:28:40.090Z,1.30
2019-04-25T19:31:10.086Z,2.53
2019-04-25T19:33:40.647Z,3.80
2019-04-25T19:36:10.453Z,1.10
2019-04-25T19:38:41.904Z,4.73
2019-04-25T19:41:36.396Z,1.93
2019-04-25T19:44:09.671Z,3.30
2019-04-25T19:46:47.358Z,2.13
2019-04-25T19:49:16.769Z,2.97
2019-04-25T19:51:47.169Z,3.83
2019-04-25T19:54:16.659Z,2.33
2019-04-25T19:56:46.020Z,3.03
2019-04-25T19:59:15.305Z,3.90
2019-04-25T20:01:44.726Z,3.40
2019-04-25T20:04:27.158Z,2.67
2019-04-25T20:07:14.428Z,3.30
2019-04-25T20:10:02.728Z,1.70
2019-04-25T20:12:36.414Z,2.30
2019-04-25T20:15:06.494Z,4.37
2019-04-25T20:17:35.817Z,1.50
2019-04-25T20:20:05.949Z,1.73
2019-04-25T20:22:35.319Z,1.67
2019-04-25T20:25:06.172Z,1.47
2019-04-25T20:27:35.488Z,1.10
2019-04-25T20:30:06.558Z,3.50
2019-04-25T20:32:35.829Z,2.70
2019-04-25T20:35:06.015Z,1.10
2019-04-25T20:37:35.336Z,1.97
2019-04-25T20:40:05.285Z,1.73
2019-04-25T20:42:34.615Z,7.30
2019-04-25T20:45:04.156Z,1.63
2019-04-25T20:47:33.442Z,2.17
2019-04-25T20:50:02.813Z,2.90
2019-04-25T20:52:32.196Z,1.70
2019-04-25T20:55:01.602Z,1.57
2019-04-25T20:57:31.008Z,4.10
2019-04-25T21:00:00.401Z,2.77
2019-04-25T21:02:29.796Z,2.93
2019-04-25T21:04:59.107Z,2.17
2019-04-25T21:07:28.514Z,3.80
2019-04-25T21:09:57.816Z,3.27
2019-04-25T21:12:27.127Z,1.37
2019-04-25T21:15:21.494Z,1.33
2019-04-25T21:18:07.926Z,1.87
2019-04-25T21:20:37.236Z,3.50
2019-04-25T21:23:06.550Z,2.70
2019-04-25T21:25:35.859Z,3.43
2019-04-25T21:28:06.473Z,1.87
2019-04-25T21:30:35.855Z,2.73
2019-04-25T21:33:05.288Z,1.93
2019-04-25T21:35:34.882Z,1.93
2019-04-25T21:38:04.293Z,2.53
2019-04-25T21:40:53.901Z,1.07
2019-04-25T21:43:29.294Z,0.70
2019-04-25T21:45:58.976Z,3.50
2019-04-25T21:48:28.675Z,2.03
2019-04-25T21:51:01.006Z,1.90
2019-04-25T21:53:30.532Z,4.50
2019-04-25T21:56:00.017Z,1.17
2019-04-25T21:58:29.712Z,2.80
2019-04-25T22:01:20.156Z,2.63
2019-04-25T22:03:49.478Z,0.60
2019-04-25T22:06:19.120Z,1.00
2019-04-25T22:08:48.518Z,4.73
2019-04-25T22:11:17.815Z,1.10
2019-04-25T22:13:47.493Z,1.47
2019-04-25T22:16:17.151Z,3.30
2019-04-25T22:18:46.725Z,3.13
2019-04-25T22:21:16.268Z,0.83
2019-04-25T22:23:45.964Z,2.97
2019-04-25T22:26:15.370Z,2.63
2019-04-25T22:28:44.992Z,0.83
2019-04-25T22:31:18.852Z,1.23
2019-04-25T22:34:09.198Z,2.83
2019-04-25T22:36:38.814Z,2.20
2019-04-25T22:39:11.085Z,1.87
2019-04-25T22:41:46.283Z,1.83
2019-04-25T22:44:15.815Z,2.07
2019-04-25T22:46:45.435Z,2.40
2019-04-25T22:49:14.803Z,4.07
2019-04-25T22:51:44.161Z,1.53
2019-04-25T22:54:13.840Z,3.40
2019-04-25T22:56:43.230Z,1.30
2019-04-25T22:59:12.817Z,1.10
2019-04-25T23:01:52.462Z,4.60
2019-04-25T23:05:05.432Z,2.43
2019-04-25T23:07:26.968Z,5.30
2019-04-25T23:09:56.552Z,3.53
2019-04-25T23:12:26.720Z,1.22
2019-04-25T23:14:56.078Z,1.27
2019-04-25T23:17:25.454Z,1.47
2019-04-25T23:19:54.846Z,2.17
2019-04-25T23:22:24.156Z,2.27
2019-04-25T23:25:14.226Z,3.30
2019-04-25T23:27:57.088Z,4.10
2019-04-25T23:30:31.730Z,1.00
2019-04-25T23:33:01.112Z,1.17
2019-04-25T23:35:32.047Z,1.30
2019-04-25T23:38:01.557Z,3.67
2019-04-25T23:40:30.936Z,1.60
2019-04-25T23:43:00.518Z,1.90
2019-04-25T23:45:29.824Z,0.60
2019-04-25T23:47:59.175Z,4.57
2019-04-25T23:50:28.802Z,1.60
2019-04-25T23:52:58.193Z,0.60
2019-04-25T23:55:27.815Z,2.30
2019-04-25T23:57:57.178Z,1.67
